sensor_id;sensor_type;location;lat;lon;timestamp;P1;durP1;ratioP1;P2;durP2;ratioP2
76608;SDS011;65928;53.936;27.540;2024-02-23T00:01:25;14.73;;;9.30;;
76608;SDS011;65928;53.936;27.540;2024-02-23T00:03:50;15.18;;;9.57;;
76608;SDS011;65928;53.936;27.540;2024-02-23T00:06:16;14.40;;;9.32;;
76608;SDS011;65928;53.936;27.540;2024-02-23T00:08:41;13.05;;;8.50;;
76608;SDS011;65928;53.936;27.540;2024-02-23T00:11:07;15.10;;;9.55;;
76608;SDS011;65928;53.936;27.540;2024-02-23T00:13:32;13.93;;;8.93;;
76608;SDS011;65928;53.936;27.540;2024-02-23T00:15:58;14.45;;;10.23;;
76608;SDS011;65928;53.936;27.540;2024-02-23T00:18:23;13.25;;;9.48;;
76608;SDS011;65928;53.936;27.540;2024-02-23T00:20:49;13.20;;;9.15;;
76608;SDS011;65928;53.936;27.540;2024-02-23T00:23:14;13.05;;;9.27;;
76608;SDS011;65928;53.936;27.540;2024-02-23T00:25:39;14.70;;;9.20;;
76608;SDS011;65928;53.936;27.540;2024-02-23T00:28:05;11.52;;;8.85;;
76608;SDS011;65928;53.936;27.540;2024-02-23T00:30:30;13.13;;;8.32;;
76608;SDS011;65928;53.936;27.540;2024-02-23T00:32:56;13.38;;;8.60;;
76608;SDS011;65928;53.936;27.540;2024-02-23T00:35:21;12.88;;;9.20;;
76608;SDS011;65928;53.936;27.540;2024-02-23T00:37:46;11.82;;;7.82;;
76608;SDS011;65928;53.936;27.540;2024-02-23T00:40:12;12.20;;;8.13;;
76608;SDS011;65928;53.936;27.540;2024-02-23T00:42:38;13.50;;;8.48;;
76608;SDS011;65928;53.936;27.540;2024-02-23T00:45:04;12.93;;;8.65;;
76608;SDS011;65928;53.936;27.540;2024-02-23T00:47:30;12.13;;;8.63;;
76608;SDS011;65928;53.936;27.540;2024-02-23T00:49:55;9.68;;;8.15;;
76608;SDS011;65928;53.936;27.540;2024-02-23T00:52:21;11.52;;;8.60;;
76608;SDS011;65928;53.936;27.540;2024-02-23T00:54:46;15.02;;;7.78;;
76608;SDS011;65928;53.936;27.540;2024-02-23T00:57:11;12.15;;;8.32;;
76608;SDS011;65928;53.936;27.540;2024-02-23T00:59:37;13.35;;;9.15;;
76608;SDS011;65928;53.936;27.540;2024-02-23T01:02:02;12.23;;;8.48;;
76608;SDS011;65928;53.936;27.540;2024-02-23T01:04:28;13.25;;;9.02;;
76608;SDS011;65928;53.936;27.540;2024-02-23T01:06:53;14.68;;;9.23;;
76608;SDS011;65928;53.936;27.540;2024-02-23T01:09:18;11.10;;;8.02;;
76608;SDS011;65928;53.936;27.540;2024-02-23T01:11:46;11.75;;;8.10;;
76608;SDS011;65928;53.936;27.540;2024-02-23T01:14:12;12.98;;;8.20;;
76608;SDS011;65928;53.936;27.540;2024-02-23T01:16:37;16.33;;;9.95;;
76608;SDS011;65928;53.936;27.540;2024-02-23T01:19:03;10.27;;;8.23;;
76608;SDS011;65928;53.936;27.540;2024-02-23T01:21:28;12.98;;;9.45;;
76608;SDS011;65928;53.936;27.540;2024-02-23T01:23:53;13.18;;;9.85;;
76608;SDS011;65928;53.936;27.540;2024-02-23T01:26:19;14.20;;;9.25;;
76608;SDS011;65928;53.936;27.540;2024-02-23T01:28:44;9.05;;;6.25;;
76608;SDS011;65928;53.936;27.540;2024-02-23T01:31:10;12.70;;;8.48;;
76608;SDS011;65928;53.936;27.540;2024-02-23T01:33:36;12.30;;;8.77;;
76608;SDS011;65928;53.936;27.540;2024-02-23T01:36:03;13.02;;;9.02;;
76608;SDS011;65928;53.936;27.540;2024-02-23T01:38:32;13.02;;;8.35;;
76608;SDS011;65928;53.936;27.540;2024-02-23T01:41:00;13.70;;;8.38;;
76608;SDS011;65928;53.936;27.540;2024-02-23T01:43:26;13.35;;;9.30;;
76608;SDS011;65928;53.936;27.540;2024-02-23T01:45:52;12.60;;;8.80;;
76608;SDS011;65928;53.936;27.540;2024-02-23T01:48:18;14.30;;;8.70;;
76608;SDS011;65928;53.936;27.540;2024-02-23T01:50:43;13.35;;;9.02;;
76608;SDS011;65928;53.936;27.540;2024-02-23T01:53:09;14.90;;;9.20;;
76608;SDS011;65928;53.936;27.540;2024-02-23T01:55:36;12.55;;;8.98;;
76608;SDS011;65928;53.936;27.540;2024-02-23T01:58:01;10.85;;;7.93;;
76608;SDS011;65928;53.936;27.540;2024-02-23T02:00:27;13.10;;;8.88;;
76608;SDS011;65928;53.936;27.540;2024-02-23T02:02:54;12.95;;;8.23;;
76608;SDS011;65928;53.936;27.540;2024-02-23T02:05:19;12.65;;;8.98;;
76608;SDS011;65928;53.936;27.540;2024-02-23T02:07:44;13.65;;;9.40;;
76608;SDS011;65928;53.936;27.540;2024-02-23T02:10:10;13.68;;;8.73;;
76608;SDS011;65928;53.936;27.540;2024-02-23T02:12:36;10.35;;;6.78;;
76608;SDS011;65928;53.936;27.540;2024-02-23T02:15:01;12.50;;;8.75;;
76608;SDS011;65928;53.936;27.540;2024-02-23T02:17:28;12.27;;;8.77;;
76608;SDS011;65928;53.936;27.540;2024-02-23T02:19:54;14.13;;;9.23;;
76608;SDS011;65928;53.936;27.540;2024-02-23T02:22:19;12.70;;;9.70;;
76608;SDS011;65928;53.936;27.540;2024-02-23T02:24:45;14.27;;;9.32;;
76608;SDS011;65928;53.936;27.540;2024-02-23T02:27:11;13.00;;;8.38;;
76608;SDS011;65928;53.936;27.540;2024-02-23T02:29:37;13.77;;;9.02;;
76608;SDS011;65928;53.936;27.540;2024-02-23T02:32:02;12.82;;;8.40;;
76608;SDS011;65928;53.936;27.540;2024-02-23T02:34:28;15.73;;;9.40;;
76608;SDS011;65928;53.936;27.540;2024-02-23T02:36:54;13.05;;;9.07;;
76608;SDS011;65928;53.936;27.540;2024-02-23T02:39:20;13.05;;;9.02;;
76608;SDS011;65928;53.936;27.540;2024-02-23T02:41:45;13.30;;;9.25;;
76608;SDS011;65928;53.936;27.540;2024-02-23T02:44:10;13.38;;;9.43;;
76608;SDS011;65928;53.936;27.540;2024-02-23T02:46:38;14.02;;;9.57;;
76608;SDS011;65928;53.936;27.540;2024-02-23T02:49:03;13.82;;;10.02;;
76608;SDS011;65928;53.936;27.540;2024-02-23T02:51:29;15.57;;;8.20;;
76608;SDS011;65928;53.936;27.540;2024-02-23T02:53:54;14.30;;;8.80;;
76608;SDS011;65928;53.936;27.540;2024-02-23T02:56:19;14.13;;;9.18;;
76608;SDS011;65928;53.936;27.540;2024-02-23T02:58:45;13.90;;;9.57;;
76608;SDS011;65928;53.936;27.540;2024-02-23T03:01:10;11.23;;;8.23;;
76608;SDS011;65928;53.936;27.540;2024-02-23T03:03:35;13.45;;;9.30;;
76608;SDS011;65928;53.936;27.540;2024-02-23T03:06:01;13.93;;;9.18;;
76608;SDS011;65928;53.936;27.540;2024-02-23T03:08:26;13.75;;;9.50;;
76608;SDS011;65928;53.936;27.540;2024-02-23T03:10:51;12.57;;;8.75;;
76608;SDS011;65928;53.936;27.540;2024-02-23T03:13:17;15.45;;;10.35;;
76608;SDS011;65928;53.936;27.540;2024-02-23T03:15:42;15.48;;;9.57;;
76608;SDS011;65928;53.936;27.540;2024-02-23T03:18:07;13.77;;;9.85;;
76608;SDS011;65928;53.936;27.540;2024-02-23T03:20:34;14.15;;;9.75;;
76608;SDS011;65928;53.936;27.540;2024-02-23T03:23:00;12.90;;;9.10;;
76608;SDS011;65928;53.936;27.540;2024-02-23T03:25:28;13.50;;;9.23;;
76608;SDS011;65928;53.936;27.540;2024-02-23T03:27:53;15.18;;;11.20;;
76608;SDS011;65928;53.936;27.540;2024-02-23T03:30:19;13.75;;;9.88;;
76608;SDS011;65928;53.936;27.540;2024-02-23T03:32:44;15.10;;;9.82;;
76608;SDS011;65928;53.936;27.540;2024-02-23T03:35:12;16.25;;;9.52;;
76608;SDS011;65928;53.936;27.540;2024-02-23T03:37:37;13.00;;;9.70;;
76608;SDS011;65928;53.936;27.540;2024-02-23T03:40:03;14.82;;;9.57;;
76608;SDS011;65928;53.936;27.540;2024-02-23T03:42:32;14.68;;;9.63;;
76608;SDS011;65928;53.936;27.540;2024-02-23T03:44:57;14.18;;;8.90;;
76608;SDS011;65928;53.936;27.540;2024-02-23T03:47:23;13.45;;;9.23;;
76608;SDS011;65928;53.936;27.540;2024-02-23T03:49:48;13.75;;;9.52;;
76608;SDS011;65928;53.936;27.540;2024-02-23T03:52:13;15.45;;;10.05;;
76608;SDS011;65928;53.936;27.540;2024-02-23T03:54:39;11.55;;;8.20;;
76608;SDS011;65928;53.936;27.540;2024-02-23T03:57:04;11.80;;;6.90;;
76608;SDS011;65928;53.936;27.540;2024-02-23T03:59:30;14.85;;;10.57;;
76608;SDS011;65928;53.936;27.540;2024-02-23T04:01:55;15.80;;;9.90;;
76608;SDS011;65928;53.936;27.540;2024-02-23T04:04:21;14.50;;;9.32;;
76608;SDS011;65928;53.936;27.540;2024-02-23T04:06:46;14.00;;;10.75;;
76608;SDS011;65928;53.936;27.540;2024-02-23T04:09:12;14.30;;;10.23;;
76608;SDS011;65928;53.936;27.540;2024-02-23T04:11:37;14.13;;;9.00;;
76608;SDS011;65928;53.936;27.540;2024-02-23T04:14:03;14.93;;;10.82;;
76608;SDS011;65928;53.936;27.540;2024-02-23T04:16:30;13.32;;;9.48;;
76608;SDS011;65928;53.936;27.540;2024-02-23T04:18:56;16.88;;;10.68;;
76608;SDS011;65928;53.936;27.540;2024-02-23T04:21:21;13.43;;;9.77;;
76608;SDS011;65928;53.936;27.540;2024-02-23T04:23:47;16.27;;;11.02;;
76608;SDS011;65928;53.936;27.540;2024-02-23T04:26:12;14.73;;;9.88;;
76608;SDS011;65928;53.936;27.540;2024-02-23T04:28:39;18.02;;;11.10;;
76608;SDS011;65928;53.936;27.540;2024-02-23T04:31:05;16.00;;;11.55;;
76608;SDS011;65928;53.936;27.540;2024-02-23T04:33:30;16.60;;;11.90;;
76608;SDS011;65928;53.936;27.540;2024-02-23T04:35:55;18.33;;;11.18;;
76608;SDS011;65928;53.936;27.540;2024-02-23T04:38:21;18.23;;;10.45;;
76608;SDS011;65928;53.936;27.540;2024-02-23T04:40:46;17.33;;;11.23;;
76608;SDS011;65928;53.936;27.540;2024-02-23T04:43:11;17.00;;;10.48;;
76608;SDS011;65928;53.936;27.540;2024-02-23T04:45:37;17.27;;;11.15;;
76608;SDS011;65928;53.936;27.540;2024-02-23T04:48:02;18.23;;;11.50;;
76608;SDS011;65928;53.936;27.540;2024-02-23T04:50:30;14.75;;;9.68;;
76608;SDS011;65928;53.936;27.540;2024-02-23T04:52:55;19.13;;;11.85;;
76608;SDS011;65928;53.936;27.540;2024-02-23T04:55:20;17.67;;;12.07;;
76608;SDS011;65928;53.936;27.540;2024-02-23T04:57:46;15.18;;;11.77;;
76608;SDS011;65928;53.936;27.540;2024-02-23T05:00:11;16.08;;;11.63;;
76608;SDS011;65928;53.936;27.540;2024-02-23T05:02:37;18.00;;;12.40;;
76608;SDS011;65928;53.936;27.540;2024-02-23T05:05:03;19.67;;;12.50;;
76608;SDS011;65928;53.936;27.540;2024-02-23T05:07:32;13.35;;;9.02;;
76608;SDS011;65928;53.936;27.540;2024-02-23T05:09:59;18.63;;;12.07;;
76608;SDS011;65928;53.936;27.540;2024-02-23T05:12:24;17.95;;;11.85;;
76608;SDS011;65928;53.936;27.540;2024-02-23T05:14:50;19.65;;;12.35;;
76608;SDS011;65928;53.936;27.540;2024-02-23T05:17:15;19.30;;;12.65;;
76608;SDS011;65928;53.936;27.540;2024-02-23T05:19:40;17.20;;;11.85;;
76608;SDS011;65928;53.936;27.540;2024-02-23T05:22:06;20.60;;;13.40;;
76608;SDS011;65928;53.936;27.540;2024-02-23T05:24:31;19.05;;;12.63;;
76608;SDS011;65928;53.936;27.540;2024-02-23T05:26:56;18.83;;;11.75;;
76608;SDS011;65928;53.936;27.540;2024-02-23T05:29:25;19.60;;;12.80;;
76608;SDS011;65928;53.936;27.540;2024-02-23T05:31:51;17.80;;;13.15;;
76608;SDS011;65928;53.936;27.540;2024-02-23T05:34:17;18.15;;;12.80;;
76608;SDS011;65928;53.936;27.540;2024-02-23T05:36:44;20.77;;;13.75;;
76608;SDS011;65928;53.936;27.540;2024-02-23T05:39:10;19.27;;;12.85;;
76608;SDS011;65928;53.936;27.540;2024-02-23T05:41:37;18.35;;;12.93;;
76608;SDS011;65928;53.936;27.540;2024-02-23T05:44:06;18.70;;;11.65;;
76608;SDS011;65928;53.936;27.540;2024-02-23T05:46:32;20.15;;;12.88;;
76608;SDS011;65928;53.936;27.540;2024-02-23T05:48:58;21.15;;;13.52;;
76608;SDS011;65928;53.936;27.540;2024-02-23T05:51:23;23.63;;;15.15;;
76608;SDS011;65928;53.936;27.540;2024-02-23T05:53:48;22.50;;;15.02;;
76608;SDS011;65928;53.936;27.540;2024-02-23T05:56:14;20.13;;;13.35;;
76608;SDS011;65928;53.936;27.540;2024-02-23T05:58:40;23.73;;;14.25;;
76608;SDS011;65928;53.936;27.540;2024-02-23T06:01:05;21.10;;;14.80;;
76608;SDS011;65928;53.936;27.540;2024-02-23T06:03:32;20.42;;;14.48;;
76608;SDS011;65928;53.936;27.540;2024-02-23T06:05:57;23.40;;;15.70;;
76608;SDS011;65928;53.936;27.540;2024-02-23T06:08:23;21.23;;;14.23;;
76608;SDS011;65928;53.936;27.540;2024-02-23T06:10:48;23.92;;;16.25;;
76608;SDS011;65928;53.936;27.540;2024-02-23T06:13:13;23.02;;;15.65;;
76608;SDS011;65928;53.936;27.540;2024-02-23T06:15:39;21.83;;;12.57;;
76608;SDS011;65928;53.936;27.540;2024-02-23T06:18:04;24.02;;;16.08;;
76608;SDS011;65928;53.936;27.540;2024-02-23T06:20:30;25.63;;;14.85;;
76608;SDS011;65928;53.936;27.540;2024-02-23T06:22:55;23.50;;;15.60;;
76608;SDS011;65928;53.936;27.540;2024-02-23T06:25:21;24.33;;;15.88;;
76608;SDS011;65928;53.936;27.540;2024-02-23T06:27:46;22.08;;;15.40;;
76608;SDS011;65928;53.936;27.540;2024-02-23T06:30:11;21.83;;;12.48;;
76608;SDS011;65928;53.936;27.540;2024-02-23T06:32:37;24.83;;;16.00;;
76608;SDS011;65928;53.936;27.540;2024-02-23T06:35:02;25.55;;;16.02;;
76608;SDS011;65928;53.936;27.540;2024-02-23T06:37:28;27.13;;;16.48;;
76608;SDS011;65928;53.936;27.540;2024-02-23T06:39:53;27.25;;;16.15;;
76608;SDS011;65928;53.936;27.540;2024-02-23T06:42:22;19.20;;;11.23;;
76608;SDS011;65928;53.936;27.540;2024-02-23T06:44:48;22.77;;;15.00;;
76608;SDS011;65928;53.936;27.540;2024-02-23T06:47:14;24.85;;;15.60;;
76608;SDS011;65928;53.936;27.540;2024-02-23T06:49:42;23.40;;;14.98;;
76608;SDS011;65928;53.936;27.540;2024-02-23T06:52:09;23.55;;;15.73;;
76608;SDS011;65928;53.936;27.540;2024-02-23T06:54:34;25.23;;;15.60;;
76608;SDS011;65928;53.936;27.540;2024-02-23T06:57:00;24.30;;;15.73;;
76608;SDS011;65928;53.936;27.540;2024-02-23T06:59:25;24.67;;;16.20;;
76608;SDS011;65928;53.936;27.540;2024-02-23T07:01:51;25.45;;;16.75;;
76608;SDS011;65928;53.936;27.540;2024-02-23T07:04:16;23.67;;;15.30;;
76608;SDS011;65928;53.936;27.540;2024-02-23T07:06:42;23.48;;;15.68;;
76608;SDS011;65928;53.936;27.540;2024-02-23T07:09:08;23.33;;;14.32;;
76608;SDS011;65928;53.936;27.540;2024-02-23T07:11:33;23.27;;;16.48;;
76608;SDS011;65928;53.936;27.540;2024-02-23T07:13:58;22.15;;;14.63;;
76608;SDS011;65928;53.936;27.540;2024-02-23T07:16:24;24.42;;;18.15;;
76608;SDS011;65928;53.936;27.540;2024-02-23T07:18:49;28.63;;;17.90;;
76608;SDS011;65928;53.936;27.540;2024-02-23T07:21:17;23.73;;;14.43;;
76608;SDS011;65928;53.936;27.540;2024-02-23T07:23:42;23.83;;;16.70;;
76608;SDS011;65928;53.936;27.540;2024-02-23T07:26:08;26.50;;;17.42;;
76608;SDS011;65928;53.936;27.540;2024-02-23T07:28:33;28.40;;;17.88;;
76608;SDS011;65928;53.936;27.540;2024-02-23T07:30:59;26.85;;;17.55;;
76608;SDS011;65928;53.936;27.540;2024-02-23T07:33:24;30.92;;;17.45;;
76608;SDS011;65928;53.936;27.540;2024-02-23T07:35:49;25.13;;;16.63;;
76608;SDS011;65928;53.936;27.540;2024-02-23T07:38:15;25.17;;;17.33;;
76608;SDS011;65928;53.936;27.540;2024-02-23T07:40:42;28.73;;;17.83;;
76608;SDS011;65928;53.936;27.540;2024-02-23T07:43:08;26.40;;;18.90;;
76608;SDS011;65928;53.936;27.540;2024-02-23T07:45:35;28.63;;;17.52;;
76608;SDS011;65928;53.936;27.540;2024-02-23T07:48:01;26.83;;;17.10;;
76608;SDS011;65928;53.936;27.540;2024-02-23T07:50:26;28.02;;;16.70;;
76608;SDS011;65928;53.936;27.540;2024-02-23T07:52:51;26.05;;;17.42;;
76608;SDS011;65928;53.936;27.540;2024-02-23T07:55:17;23.00;;;15.68;;
76608;SDS011;65928;53.936;27.540;2024-02-23T07:57:42;25.50;;;16.90;;
76608;SDS011;65928;53.936;27.540;2024-02-23T08:00:08;24.10;;;17.20;;
76608;SDS011;65928;53.936;27.540;2024-02-23T08:02:34;26.90;;;17.65;;
76608;SDS011;65928;53.936;27.540;2024-02-23T08:05:00;26.52;;;17.50;;
76608;SDS011;65928;53.936;27.540;2024-02-23T08:07:26;27.92;;;18.83;;
76608;SDS011;65928;53.936;27.540;2024-02-23T08:09:53;28.30;;;19.08;;
76608;SDS011;65928;53.936;27.540;2024-02-23T08:12:18;29.23;;;18.65;;
76608;SDS011;65928;53.936;27.540;2024-02-23T08:14:44;29.00;;;18.45;;
76608;SDS011;65928;53.936;27.540;2024-02-23T08:17:11;31.08;;;18.00;;
76608;SDS011;65928;53.936;27.540;2024-02-23T08:19:36;24.65;;;17.45;;
76608;SDS011;65928;53.936;27.540;2024-02-23T08:22:02;27.67;;;19.75;;
76608;SDS011;65928;53.936;27.540;2024-02-23T08:24:27;30.73;;;19.67;;
76608;SDS011;65928;53.936;27.540;2024-02-23T08:26:53;30.10;;;18.88;;
76608;SDS011;65928;53.936;27.540;2024-02-23T08:29:18;28.52;;;18.80;;
76608;SDS011;65928;53.936;27.540;2024-02-23T08:31:44;30.98;;;18.90;;
76608;SDS011;65928;53.936;27.540;2024-02-23T08:34:09;28.90;;;19.17;;
76608;SDS011;65928;53.936;27.540;2024-02-23T08:36:35;28.88;;;20.08;;
76608;SDS011;65928;53.936;27.540;2024-02-23T08:39:00;34.60;;;19.48;;
76608;SDS011;65928;53.936;27.540;2024-02-23T08:41:25;31.65;;;19.98;;
76608;SDS011;65928;53.936;27.540;2024-02-23T08:43:51;29.98;;;18.77;;
76608;SDS011;65928;53.936;27.540;2024-02-23T08:46:16;32.38;;;19.35;;
76608;SDS011;65928;53.936;27.540;2024-02-23T08:48:41;24.73;;;16.75;;
76608;SDS011;65928;53.936;27.540;2024-02-23T08:51:06;29.85;;;18.50;;
76608;SDS011;65928;53.936;27.540;2024-02-23T08:53:32;27.17;;;17.83;;
76608;SDS011;65928;53.936;27.540;2024-02-23T08:55:57;26.25;;;17.83;;
76608;SDS011;65928;53.936;27.540;2024-02-23T08:58:22;26.25;;;17.80;;
76608;SDS011;65928;53.936;27.540;2024-02-23T09:00:48;30.58;;;18.15;;
76608;SDS011;65928;53.936;27.540;2024-02-23T09:03:13;24.42;;;16.60;;
76608;SDS011;65928;53.936;27.540;2024-02-23T09:05:39;25.05;;;17.50;;
76608;SDS011;65928;53.936;27.540;2024-02-23T09:08:05;26.58;;;18.33;;
76608;SDS011;65928;53.936;27.540;2024-02-23T09:10:31;26.38;;;17.38;;
76608;SDS011;65928;53.936;27.540;2024-02-23T09:12:56;29.88;;;18.48;;
76608;SDS011;65928;53.936;27.540;2024-02-23T09:15:22;27.50;;;17.85;;
76608;SDS011;65928;53.936;27.540;2024-02-23T09:17:47;26.20;;;16.88;;
76608;SDS011;65928;53.936;27.540;2024-02-23T09:20:12;26.65;;;17.35;;
76608;SDS011;65928;53.936;27.540;2024-02-23T09:22:38;27.17;;;18.52;;
76608;SDS011;65928;53.936;27.540;2024-02-23T09:25:04;26.80;;;16.25;;
76608;SDS011;65928;53.936;27.540;2024-02-23T09:27:30;23.95;;;14.57;;
76608;SDS011;65928;53.936;27.540;2024-02-23T09:29:56;25.58;;;17.83;;
76608;SDS011;65928;53.936;27.540;2024-02-23T09:32:22;23.30;;;16.58;;
76608;SDS011;65928;53.936;27.540;2024-02-23T09:34:48;26.33;;;16.55;;
76608;SDS011;65928;53.936;27.540;2024-02-23T09:37:13;26.98;;;17.50;;
76608;SDS011;65928;53.936;27.540;2024-02-23T09:39:41;22.85;;;15.52;;
76608;SDS011;65928;53.936;27.540;2024-02-23T09:42:08;27.85;;;17.40;;
76608;SDS011;65928;53.936;27.540;2024-02-23T09:44:35;22.50;;;15.55;;
76608;SDS011;65928;53.936;27.540;2024-02-23T09:47:03;27.20;;;17.10;;
76608;SDS011;65928;53.936;27.540;2024-02-23T09:49:42;23.25;;;16.02;;
76608;SDS011;65928;53.936;27.540;2024-02-23T09:52:09;23.80;;;15.80;;
76608;SDS011;65928;53.936;27.540;2024-02-23T09:54:38;25.15;;;15.10;;
76608;SDS011;65928;53.936;27.540;2024-02-23T09:57:09;22.02;;;14.18;;
76608;SDS011;65928;53.936;27.540;2024-02-23T09:59:34;26.63;;;17.10;;
76608;SDS011;65928;53.936;27.540;2024-02-23T10:02:02;22.60;;;15.35;;
76608;SDS011;65928;53.936;27.540;2024-02-23T10:04:35;22.13;;;14.35;;
76608;SDS011;65928;53.936;27.540;2024-02-23T10:07:01;19.15;;;13.88;;
76608;SDS011;65928;53.936;27.540;2024-02-23T10:09:26;25.52;;;15.23;;
76608;SDS011;65928;53.936;27.540;2024-02-23T10:11:55;20.75;;;14.65;;
76608;SDS011;65928;53.936;27.540;2024-02-23T10:14:20;21.58;;;13.95;;
76608;SDS011;65928;53.936;27.540;2024-02-23T10:16:46;21.35;;;13.25;;
76608;SDS011;65928;53.936;27.540;2024-02-23T10:19:11;22.05;;;14.88;;
76608;SDS011;65928;53.936;27.540;2024-02-23T10:21:37;20.73;;;14.52;;
76608;SDS011;65928;53.936;27.540;2024-02-23T10:24:02;21.50;;;14.90;;
76608;SDS011;65928;53.936;27.540;2024-02-23T10:26:27;21.65;;;14.30;;
76608;SDS011;65928;53.936;27.540;2024-02-23T10:28:53;20.48;;;14.38;;
76608;SDS011;65928;53.936;27.540;2024-02-23T10:31:18;21.80;;;15.00;;
76608;SDS011;65928;53.936;27.540;2024-02-23T10:33:46;21.75;;;13.68;;
76608;SDS011;65928;53.936;27.540;2024-02-23T10:36:14;21.52;;;14.38;;
76608;SDS011;65928;53.936;27.540;2024-02-23T10:38:40;18.90;;;13.00;;
76608;SDS011;65928;53.936;27.540;2024-02-23T10:41:10;17.95;;;12.75;;
76608;SDS011;65928;53.936;27.540;2024-02-23T10:43:46;20.70;;;13.65;;
76608;SDS011;65928;53.936;27.540;2024-02-23T10:46:12;21.33;;;13.02;;
76608;SDS011;65928;53.936;27.540;2024-02-23T10:48:39;19.92;;;13.73;;
76608;SDS011;65928;53.936;27.540;2024-02-23T10:51:05;23.20;;;14.02;;
76608;SDS011;65928;53.936;27.540;2024-02-23T10:53:31;14.40;;;10.20;;
76608;SDS011;65928;53.936;27.540;2024-02-23T10:55:57;15.93;;;10.80;;
76608;SDS011;65928;53.936;27.540;2024-02-23T10:58:25;21.02;;;12.63;;
76608;SDS011;65928;53.936;27.540;2024-02-23T11:00:50;22.10;;;13.43;;
76608;SDS011;65928;53.936;27.540;2024-02-23T11:03:16;19.48;;;13.25;;
76608;SDS011;65928;53.936;27.540;2024-02-23T11:05:42;17.08;;;12.35;;
76608;SDS011;65928;53.936;27.540;2024-02-23T11:08:07;21.60;;;13.70;;
76608;SDS011;65928;53.936;27.540;2024-02-23T11:10:43;20.58;;;13.98;;
76608;SDS011;65928;53.936;27.540;2024-02-23T11:13:17;15.80;;;10.10;;
76608;SDS011;65928;53.936;27.540;2024-02-23T11:15:42;18.92;;;13.10;;
76608;SDS011;65928;53.936;27.540;2024-02-23T11:21:05;17.10;;;9.52;;
76608;SDS011;65928;53.936;27.540;2024-02-23T11:26:08;17.38;;;12.82;;
76608;SDS011;65928;53.936;27.540;2024-02-23T11:28:41;19.23;;;12.43;;
76608;SDS011;65928;53.936;27.540;2024-02-23T11:36:22;20.35;;;12.20;;
76608;SDS011;65928;53.936;27.540;2024-02-23T11:38:48;20.17;;;13.07;;
76608;SDS011;65928;53.936;27.540;2024-02-23T11:41:17;18.63;;;12.82;;
76608;SDS011;65928;53.936;27.540;2024-02-23T11:43:42;16.52;;;10.52;;
76608;SDS011;65928;53.936;27.540;2024-02-23T11:46:09;15.77;;;10.75;;
76608;SDS011;65928;53.936;27.540;2024-02-23T11:48:34;18.95;;;12.18;;
76608;SDS011;65928;53.936;27.540;2024-02-23T11:50:59;18.52;;;12.43;;
76608;SDS011;65928;53.936;27.540;2024-02-23T11:53:25;17.08;;;11.90;;
76608;SDS011;65928;53.936;27.540;2024-02-23T11:55:52;17.23;;;12.43;;
76608;SDS011;65928;53.936;27.540;2024-02-23T11:58:17;20.30;;;13.10;;
76608;SDS011;65928;53.936;27.540;2024-02-23T12:00:43;18.35;;;12.35;;
76608;SDS011;65928;53.936;27.540;2024-02-23T12:03:08;17.15;;;12.05;;
76608;SDS011;65928;53.936;27.540;2024-02-23T12:05:34;15.43;;;11.35;;
76608;SDS011;65928;53.936;27.540;2024-02-23T12:08:00;15.05;;;11.68;;
76608;SDS011;65928;53.936;27.540;2024-02-23T12:10:25;15.38;;;11.27;;
76608;SDS011;65928;53.936;27.540;2024-02-23T12:12:52;16.35;;;11.30;;
76608;SDS011;65928;53.936;27.540;2024-02-23T12:15:18;14.98;;;10.43;;
76608;SDS011;65928;53.936;27.540;2024-02-23T12:17:47;18.52;;;11.48;;
76608;SDS011;65928;53.936;27.540;2024-02-23T12:20:13;16.73;;;11.35;;
76608;SDS011;65928;53.936;27.540;2024-02-23T12:22:40;16.05;;;11.65;;
76608;SDS011;65928;53.936;27.540;2024-02-23T12:25:06;15.30;;;10.57;;
76608;SDS011;65928;53.936;27.540;2024-02-23T12:27:31;16.60;;;11.80;;
76608;SDS011;65928;53.936;27.540;2024-02-23T12:29:57;15.75;;;11.13;;
76608;SDS011;65928;53.936;27.540;2024-02-23T12:32:22;13.02;;;9.65;;
76608;SDS011;65928;53.936;27.540;2024-02-23T12:34:48;15.98;;;11.23;;
76608;SDS011;65928;53.936;27.540;2024-02-23T12:37:16;14.95;;;10.25;;
76608;SDS011;65928;53.936;27.540;2024-02-23T12:39:43;17.92;;;11.63;;
76608;SDS011;65928;53.936;27.540;2024-02-23T12:42:08;13.55;;;10.45;;
76608;SDS011;65928;53.936;27.540;2024-02-23T12:44:34;16.65;;;12.02;;
76608;SDS011;65928;53.936;27.540;2024-02-23T12:46:59;18.02;;;10.88;;
76608;SDS011;65928;53.936;27.540;2024-02-23T12:49:25;14.40;;;10.52;;
76608;SDS011;65928;53.936;27.540;2024-02-23T12:51:50;17.52;;;10.82;;
76608;SDS011;65928;53.936;27.540;2024-02-23T12:54:16;14.88;;;10.35;;
76608;SDS011;65928;53.936;27.540;2024-02-23T12:56:41;14.57;;;11.13;;
76608;SDS011;65928;53.936;27.540;2024-02-23T12:59:07;14.65;;;10.50;;
76608;SDS011;65928;53.936;27.540;2024-02-23T13:01:34;16.85;;;11.98;;
76608;SDS011;65928;53.936;27.540;2024-02-23T13:04:02;18.02;;;12.73;;
76608;SDS011;65928;53.936;27.540;2024-02-23T13:06:27;17.40;;;11.63;;
76608;SDS011;65928;53.936;27.540;2024-02-23T13:08:53;18.58;;;12.05;;
76608;SDS011;65928;53.936;27.540;2024-02-23T13:11:18;14.48;;;11.98;;
76608;SDS011;65928;53.936;27.540;2024-02-23T13:13:43;15.75;;;10.40;;
76608;SDS011;65928;53.936;27.540;2024-02-23T13:16:10;19.42;;;12.73;;
76608;SDS011;65928;53.936;27.540;2024-02-23T13:18:35;15.70;;;12.90;;
76608;SDS011;65928;53.936;27.540;2024-02-23T13:21:01;16.20;;;12.45;;
76608;SDS011;65928;53.936;27.540;2024-02-23T13:23:28;18.33;;;12.50;;
76608;SDS011;65928;53.936;27.540;2024-02-23T13:25:53;16.88;;;11.60;;
76608;SDS011;65928;53.936;27.540;2024-02-23T13:28:19;16.65;;;12.82;;
76608;SDS011;65928;53.936;27.540;2024-02-23T13:30:44;17.45;;;12.68;;
76608;SDS011;65928;53.936;27.540;2024-02-23T13:33:10;20.30;;;13.70;;
76608;SDS011;65928;53.936;27.540;2024-02-23T13:35:36;18.67;;;12.10;;
76608;SDS011;65928;53.936;27.540;2024-02-23T13:38:01;17.80;;;12.60;;
76608;SDS011;65928;53.936;27.540;2024-02-23T13:40:30;17.80;;;12.77;;
76608;SDS011;65928;53.936;27.540;2024-02-23T13:42:56;17.02;;;12.50;;
76608;SDS011;65928;53.936;27.540;2024-02-23T13:45:21;19.15;;;12.98;;
76608;SDS011;65928;53.936;27.540;2024-02-23T13:48:01;17.27;;;12.30;;
76608;SDS011;65928;53.936;27.540;2024-02-23T13:50:28;18.17;;;12.93;;
76608;SDS011;65928;53.936;27.540;2024-02-23T13:52:53;22.13;;;14.10;;
76608;SDS011;65928;53.936;27.540;2024-02-23T13:55:19;18.77;;;13.45;;
76608;SDS011;65928;53.936;27.540;2024-02-23T13:57:48;17.85;;;13.35;;
76608;SDS011;65928;53.936;27.540;2024-02-23T14:00:15;15.65;;;12.85;;
76608;SDS011;65928;53.936;27.540;2024-02-23T14:02:40;18.52;;;13.52;;
76608;SDS011;65928;53.936;27.540;2024-02-23T14:05:06;19.27;;;13.32;;
76608;SDS011;65928;53.936;27.540;2024-02-23T14:07:32;19.25;;;12.38;;
76608;SDS011;65928;53.936;27.540;2024-02-23T14:09:58;19.80;;;14.10;;
76608;SDS011;65928;53.936;27.540;2024-02-23T14:12:23;17.65;;;13.45;;
76608;SDS011;65928;53.936;27.540;2024-02-23T14:14:49;19.02;;;13.30;;
76608;SDS011;65928;53.936;27.540;2024-02-23T14:17:14;17.95;;;12.88;;